Terminal Aerodrome Forecast
Issued by NWS Upton, NY

Home | Current Version | Previous Version | Text Only | Print | Product List | Glossary On
Versions: 1 2 3 4 5 6 7 8 9 10 11 12 13 14 15 16 17 18 19 20 21 22 23 24 25 26 27 28 29 30 31 32 33 34
000
FTUS41 KOKX 201731
TAFBDR
TAF
KBDR 201731Z 2018/2118 36016G24KT P6SM OVC030
     FM202200 36016G24KT P6SM BKN040
     FM210500 35011G19KT P6SM SCT120
     FM210800 35011KT P6SM SCT070
     FM211600 35016G22KT P6SM SCT080=

USA.gov is the U.S. government's official web portal to all federal, state and local government web resources and services.